sensor_id;sensor_type;location;lat;lon;timestamp;temperature;humidity
21811;DHT22;11067;48.788;9.208;2023-04-25T00:02:01;9.60;99.90
21811;DHT22;11067;48.788;9.208;2023-04-25T00:04:28;9.50;99.90
21811;DHT22;11067;48.788;9.208;2023-04-25T00:06:55;9.50;99.90
21811;DHT22;11067;48.788;9.208;2023-04-25T00:09:21;9.50;99.90
21811;DHT22;11067;48.788;9.208;2023-04-25T00:11:47;9.50;99.90
21811;DHT22;11067;48.788;9.208;2023-04-25T00:14:12;9.50;99.90
21811;DHT22;11067;48.788;9.208;2023-04-25T00:16:38;9.50;99.90
21811;DHT22;11067;48.788;9.208;2023-04-25T00:19:04;9.50;99.90
21811;DHT22;11067;48.788;9.208;2023-04-25T00:21:30;9.50;99.90
21811;DHT22;11067;48.788;9.208;2023-04-25T00:23:56;9.50;99.90
21811;DHT22;11067;48.788;9.208;2023-04-25T00:26:22;9.50;99.90
21811;DHT22;11067;48.788;9.208;2023-04-25T00:28:48;9.50;99.90
21811;DHT22;11067;48.788;9.208;2023-04-25T00:31:14;9.40;99.90
21811;DHT22;11067;48.788;9.208;2023-04-25T00:33:39;9.40;99.90
21811;DHT22;11067;48.788;9.208;2023-04-25T00:36:06;9.40;99.90
21811;DHT22;11067;48.788;9.208;2023-04-25T00:38:31;9.40;99.90
21811;DHT22;11067;48.788;9.208;2023-04-25T00:40:57;9.30;99.90
21811;DHT22;11067;48.788;9.208;2023-04-25T00:43:27;9.30;99.90
21811;DHT22;11067;48.788;9.208;2023-04-25T00:45:53;9.30;99.90
21811;DHT22;11067;48.788;9.208;2023-04-25T00:48:22;9.30;99.90
21811;DHT22;11067;48.788;9.208;2023-04-25T00:50:57;9.30;99.90
21811;DHT22;11067;48.788;9.208;2023-04-25T00:53:24;9.30;99.90
21811;DHT22;11067;48.788;9.208;2023-04-25T00:55:51;9.30;99.90
21811;DHT22;11067;48.788;9.208;2023-04-25T00:58:21;9.40;99.90
21811;DHT22;11067;48.788;9.208;2023-04-25T01:00:48;9.30;99.90
21811;DHT22;11067;48.788;9.208;2023-04-25T01:03:15;9.30;99.90
21811;DHT22;11067;48.788;9.208;2023-04-25T01:05:42;9.30;99.90
21811;DHT22;11067;48.788;9.208;2023-04-25T01:08:08;9.30;99.90
21811;DHT22;11067;48.788;9.208;2023-04-25T01:10:33;9.30;99.90
21811;DHT22;11067;48.788;9.208;2023-04-25T01:12:59;9.30;99.90
21811;DHT22;11067;48.788;9.208;2023-04-25T01:15:24;9.30;99.90
21811;DHT22;11067;48.788;9.208;2023-04-25T01:17:50;9.30;99.90
21811;DHT22;11067;48.788;9.208;2023-04-25T01:20:16;9.30;99.90
21811;DHT22;11067;48.788;9.208;2023-04-25T01:22:42;9.30;99.90
21811;DHT22;11067;48.788;9.208;2023-04-25T01:25:08;9.30;99.90
21811;DHT22;11067;48.788;9.208;2023-04-25T01:27:36;9.30;99.90
21811;DHT22;11067;48.788;9.208;2023-04-25T01:30:01;9.30;99.90
21811;DHT22;11067;48.788;9.208;2023-04-25T01:32:27;9.30;99.90
21811;DHT22;11067;48.788;9.208;2023-04-25T01:34:53;9.40;99.90
21811;DHT22;11067;48.788;9.208;2023-04-25T01:37:19;9.30;99.90
21811;DHT22;11067;48.788;9.208;2023-04-25T01:39:44;9.20;99.90
21811;DHT22;11067;48.788;9.208;2023-04-25T01:42:10;9.20;99.90
21811;DHT22;11067;48.788;9.208;2023-04-25T01:44:35;9.30;99.90
21811;DHT22;11067;48.788;9.208;2023-04-25T01:47:01;9.40;99.90
21811;DHT22;11067;48.788;9.208;2023-04-25T01:49:27;9.40;99.90
21811;DHT22;11067;48.788;9.208;2023-04-25T01:51:52;9.40;99.90
21811;DHT22;11067;48.788;9.208;2023-04-25T01:54:18;9.40;99.90
21811;DHT22;11067;48.788;9.208;2023-04-25T01:56:50;9.40;99.90
21811;DHT22;11067;48.788;9.208;2023-04-25T01:59:16;9.40;99.90
21811;DHT22;11067;48.788;9.208;2023-04-25T02:01:41;9.50;99.90
21811;DHT22;11067;48.788;9.208;2023-04-25T02:04:07;9.40;99.90
21811;DHT22;11067;48.788;9.208;2023-04-25T02:06:32;9.40;99.90
21811;DHT22;11067;48.788;9.208;2023-04-25T02:08:58;9.40;99.90
21811;DHT22;11067;48.788;9.208;2023-04-25T02:11:23;9.40;99.90
21811;DHT22;11067;48.788;9.208;2023-04-25T02:13:49;9.20;99.90
21811;DHT22;11067;48.788;9.208;2023-04-25T02:16:15;9.20;99.90
21811;DHT22;11067;48.788;9.208;2023-04-25T02:18:40;9.30;99.90
21811;DHT22;11067;48.788;9.208;2023-04-25T02:21:06;9.30;99.90
21811;DHT22;11067;48.788;9.208;2023-04-25T02:23:31;9.20;99.90
21811;DHT22;11067;48.788;9.208;2023-04-25T02:25:57;9.20;99.90
21811;DHT22;11067;48.788;9.208;2023-04-25T02:28:24;9.20;99.90
21811;DHT22;11067;48.788;9.208;2023-04-25T02:30:50;9.20;99.90
21811;DHT22;11067;48.788;9.208;2023-04-25T02:33:16;9.10;99.90
21811;DHT22;11067;48.788;9.208;2023-04-25T02:35:42;9.10;99.90
21811;DHT22;11067;48.788;9.208;2023-04-25T02:38:07;9.00;99.90
21811;DHT22;11067;48.788;9.208;2023-04-25T02:40:33;9.00;99.90
21811;DHT22;11067;48.788;9.208;2023-04-25T02:42:58;8.90;99.90
21811;DHT22;11067;48.788;9.208;2023-04-25T02:45:24;8.90;99.90
21811;DHT22;11067;48.788;9.208;2023-04-25T02:47:49;8.90;99.90
21811;DHT22;11067;48.788;9.208;2023-04-25T02:50:15;8.90;99.90
21811;DHT22;11067;48.788;9.208;2023-04-25T02:52:41;8.80;99.90
21811;DHT22;11067;48.788;9.208;2023-04-25T02:55:06;8.90;99.90
21811;DHT22;11067;48.788;9.208;2023-04-25T02:57:32;8.90;99.90
21811;DHT22;11067;48.788;9.208;2023-04-25T02:59:57;8.90;99.90
21811;DHT22;11067;48.788;9.208;2023-04-25T03:02:23;8.90;99.90
21811;DHT22;11067;48.788;9.208;2023-04-25T03:04:48;8.90;99.90
21811;DHT22;11067;48.788;9.208;2023-04-25T03:07:14;8.80;99.90
21811;DHT22;11067;48.788;9.208;2023-04-25T03:09:40;8.80;99.90
21811;DHT22;11067;48.788;9.208;2023-04-25T03:12:05;8.90;99.90
21811;DHT22;11067;48.788;9.208;2023-04-25T03:14:31;8.90;99.90
21811;DHT22;11067;48.788;9.208;2023-04-25T03:16:56;8.90;99.90
21811;DHT22;11067;48.788;9.208;2023-04-25T03:19:22;8.90;99.90
21811;DHT22;11067;48.788;9.208;2023-04-25T03:21:48;8.90;99.90
21811;DHT22;11067;48.788;9.208;2023-04-25T03:24:13;9.00;99.90
21811;DHT22;11067;48.788;9.208;2023-04-25T03:26:39;9.00;99.90
21811;DHT22;11067;48.788;9.208;2023-04-25T03:29:04;8.90;99.90
21811;DHT22;11067;48.788;9.208;2023-04-25T03:31:30;8.90;99.90
21811;DHT22;11067;48.788;9.208;2023-04-25T03:33:56;9.00;99.90
21811;DHT22;11067;48.788;9.208;2023-04-25T03:36:21;8.90;99.90
21811;DHT22;11067;48.788;9.208;2023-04-25T03:38:47;8.90;99.90
21811;DHT22;11067;48.788;9.208;2023-04-25T03:41:13;8.90;99.90
21811;DHT22;11067;48.788;9.208;2023-04-25T03:43:39;8.90;99.90
21811;DHT22;11067;48.788;9.208;2023-04-25T03:46:04;8.90;99.90
21811;DHT22;11067;48.788;9.208;2023-04-25T03:48:30;9.00;99.90
21811;DHT22;11067;48.788;9.208;2023-04-25T03:50:55;9.00;99.90
21811;DHT22;11067;48.788;9.208;2023-04-25T03:53:21;8.90;99.90
21811;DHT22;11067;48.788;9.208;2023-04-25T03:55:47;8.80;99.90
21811;DHT22;11067;48.788;9.208;2023-04-25T03:58:12;8.80;99.90
21811;DHT22;11067;48.788;9.208;2023-04-25T04:00:38;8.80;99.90
21811;DHT22;11067;48.788;9.208;2023-04-25T04:03:03;8.80;99.90
21811;DHT22;11067;48.788;9.208;2023-04-25T04:05:29;8.80;99.90
21811;DHT22;11067;48.788;9.208;2023-04-25T04:07:55;8.70;99.90
21811;DHT22;11067;48.788;9.208;2023-04-25T04:10:21;8.70;99.90
21811;DHT22;11067;48.788;9.208;2023-04-25T04:12:46;8.60;99.90
21811;DHT22;11067;48.788;9.208;2023-04-25T04:15:12;8.60;99.90
21811;DHT22;11067;48.788;9.208;2023-04-25T04:17:38;8.60;99.90
21811;DHT22;11067;48.788;9.208;2023-04-25T04:20:04;8.60;99.90
21811;DHT22;11067;48.788;9.208;2023-04-25T04:22:31;8.60;99.90
21811;DHT22;11067;48.788;9.208;2023-04-25T04:24:56;8.60;99.90
21811;DHT22;11067;48.788;9.208;2023-04-25T04:27:22;8.60;99.90
21811;DHT22;11067;48.788;9.208;2023-04-25T04:29:48;8.60;99.90
21811;DHT22;11067;48.788;9.208;2023-04-25T04:32:15;8.70;99.90
21811;DHT22;11067;48.788;9.208;2023-04-25T04:34:41;8.70;99.90
21811;DHT22;11067;48.788;9.208;2023-04-25T04:37:06;8.70;99.90
21811;DHT22;11067;48.788;9.208;2023-04-25T04:39:33;8.70;99.90
21811;DHT22;11067;48.788;9.208;2023-04-25T04:41:58;8.70;99.90
21811;DHT22;11067;48.788;9.208;2023-04-25T04:44:25;8.70;99.90
21811;DHT22;11067;48.788;9.208;2023-04-25T04:46:51;8.80;99.90
21811;DHT22;11067;48.788;9.208;2023-04-25T04:49:17;8.80;99.90
21811;DHT22;11067;48.788;9.208;2023-04-25T04:51:43;8.80;99.90
21811;DHT22;11067;48.788;9.208;2023-04-25T04:54:12;8.90;99.90
21811;DHT22;11067;48.788;9.208;2023-04-25T04:56:37;9.00;99.90
21811;DHT22;11067;48.788;9.208;2023-04-25T04:59:03;8.90;99.90
21811;DHT22;11067;48.788;9.208;2023-04-25T05:01:29;8.80;99.90
21811;DHT22;11067;48.788;9.208;2023-04-25T05:03:56;8.80;99.90
21811;DHT22;11067;48.788;9.208;2023-04-25T05:06:26;8.90;99.90
21811;DHT22;11067;48.788;9.208;2023-04-25T05:08:52;8.80;99.90
21811;DHT22;11067;48.788;9.208;2023-04-25T05:11:18;9.00;99.90
21811;DHT22;11067;48.788;9.208;2023-04-25T05:13:44;8.90;99.90
21811;DHT22;11067;48.788;9.208;2023-04-25T05:16:11;8.80;99.90
21811;DHT22;11067;48.788;9.208;2023-04-25T05:18:37;8.80;99.90
21811;DHT22;11067;48.788;9.208;2023-04-25T05:21:03;8.80;99.90
21811;DHT22;11067;48.788;9.208;2023-04-25T05:23:28;8.90;99.90
21811;DHT22;11067;48.788;9.208;2023-04-25T05:25:55;9.10;99.90
21811;DHT22;11067;48.788;9.208;2023-04-25T05:28:21;9.20;99.90
21811;DHT22;11067;48.788;9.208;2023-04-25T05:30:46;9.20;99.90
21811;DHT22;11067;48.788;9.208;2023-04-25T05:33:12;9.20;99.90
21811;DHT22;11067;48.788;9.208;2023-04-25T05:35:38;9.10;99.90
21811;DHT22;11067;48.788;9.208;2023-04-25T05:38:03;9.30;99.90
21811;DHT22;11067;48.788;9.208;2023-04-25T05:40:29;9.30;99.90
21811;DHT22;11067;48.788;9.208;2023-04-25T05:42:54;9.40;99.90
21811;DHT22;11067;48.788;9.208;2023-04-25T05:45:20;9.30;99.90
21811;DHT22;11067;48.788;9.208;2023-04-25T05:47:45;9.10;99.90
21811;DHT22;11067;48.788;9.208;2023-04-25T05:50:11;9.20;99.90
21811;DHT22;11067;48.788;9.208;2023-04-25T05:52:36;9.20;99.90
21811;DHT22;11067;48.788;9.208;2023-04-25T05:55:02;9.10;99.90
21811;DHT22;11067;48.788;9.208;2023-04-25T05:57:28;9.10;99.90
21811;DHT22;11067;48.788;9.208;2023-04-25T05:59:53;9.10;99.90
21811;DHT22;11067;48.788;9.208;2023-04-25T06:02:20;9.10;99.90
21811;DHT22;11067;48.788;9.208;2023-04-25T06:04:47;9.00;99.90
21811;DHT22;11067;48.788;9.208;2023-04-25T06:07:13;9.10;99.90
21811;DHT22;11067;48.788;9.208;2023-04-25T06:09:39;9.10;99.90
21811;DHT22;11067;48.788;9.208;2023-04-25T06:12:06;9.20;99.90
21811;DHT22;11067;48.788;9.208;2023-04-25T06:14:31;9.10;99.90
21811;DHT22;11067;48.788;9.208;2023-04-25T06:16:57;9.10;99.90
21811;DHT22;11067;48.788;9.208;2023-04-25T06:19:22;9.10;99.90
21811;DHT22;11067;48.788;9.208;2023-04-25T06:21:48;9.20;99.90
21811;DHT22;11067;48.788;9.208;2023-04-25T06:24:13;9.30;99.90
21811;DHT22;11067;48.788;9.208;2023-04-25T06:26:39;9.30;99.90
21811;DHT22;11067;48.788;9.208;2023-04-25T06:29:05;9.40;99.90
21811;DHT22;11067;48.788;9.208;2023-04-25T06:31:30;9.50;99.90
21811;DHT22;11067;48.788;9.208;2023-04-25T06:33:58;9.50;99.90
21811;DHT22;11067;48.788;9.208;2023-04-25T06:36:23;9.50;99.90
21811;DHT22;11067;48.788;9.208;2023-04-25T06:38:51;9.70;99.90
21811;DHT22;11067;48.788;9.208;2023-04-25T06:41:18;9.70;99.90
21811;DHT22;11067;48.788;9.208;2023-04-25T06:43:44;9.70;99.90
21811;DHT22;11067;48.788;9.208;2023-04-25T06:46:09;9.70;99.90
21811;DHT22;11067;48.788;9.208;2023-04-25T06:48:35;9.80;99.90
21811;DHT22;11067;48.788;9.208;2023-04-25T06:51:00;9.80;99.90
21811;DHT22;11067;48.788;9.208;2023-04-25T06:53:26;9.80;99.90
21811;DHT22;11067;48.788;9.208;2023-04-25T06:55:51;9.80;99.90
21811;DHT22;11067;48.788;9.208;2023-04-25T06:58:17;9.90;99.90
21811;DHT22;11067;48.788;9.208;2023-04-25T07:00:43;10.00;99.90
21811;DHT22;11067;48.788;9.208;2023-04-25T07:03:09;10.10;99.90
21811;DHT22;11067;48.788;9.208;2023-04-25T07:05:35;9.90;99.90
21811;DHT22;11067;48.788;9.208;2023-04-25T07:08:00;9.70;99.90
21811;DHT22;11067;48.788;9.208;2023-04-25T07:10:26;9.60;99.90
21811;DHT22;11067;48.788;9.208;2023-04-25T07:12:52;9.60;99.90
21811;DHT22;11067;48.788;9.208;2023-04-25T07:15:17;9.80;99.90
21811;DHT22;11067;48.788;9.208;2023-04-25T07:17:43;9.60;99.90
21811;DHT22;11067;48.788;9.208;2023-04-25T07:20:09;9.60;99.90
21811;DHT22;11067;48.788;9.208;2023-04-25T07:22:35;9.60;99.90
21811;DHT22;11067;48.788;9.208;2023-04-25T07:25:01;9.50;99.90
21811;DHT22;11067;48.788;9.208;2023-04-25T07:27:26;9.20;99.90
21811;DHT22;11067;48.788;9.208;2023-04-25T07:29:52;9.30;99.90
21811;DHT22;11067;48.788;9.208;2023-04-25T07:32:18;9.50;99.90
21811;DHT22;11067;48.788;9.208;2023-04-25T07:34:43;9.60;99.90
21811;DHT22;11067;48.788;9.208;2023-04-25T07:37:09;9.40;99.90
21811;DHT22;11067;48.788;9.208;2023-04-25T07:39:34;9.40;99.90
21811;DHT22;11067;48.788;9.208;2023-04-25T07:42:00;9.50;99.90
21811;DHT22;11067;48.788;9.208;2023-04-25T07:44:27;9.50;99.90
21811;DHT22;11067;48.788;9.208;2023-04-25T07:46:53;9.60;99.90
21811;DHT22;11067;48.788;9.208;2023-04-25T07:49:18;9.50;99.90
21811;DHT22;11067;48.788;9.208;2023-04-25T07:51:44;9.40;99.90
21811;DHT22;11067;48.788;9.208;2023-04-25T07:54:13;9.10;99.90
21811;DHT22;11067;48.788;9.208;2023-04-25T07:56:39;9.10;99.90
21811;DHT22;11067;48.788;9.208;2023-04-25T07:59:04;9.10;99.90
21811;DHT22;11067;48.788;9.208;2023-04-25T08:01:30;9.10;99.90
21811;DHT22;11067;48.788;9.208;2023-04-25T08:03:56;9.00;99.90
21811;DHT22;11067;48.788;9.208;2023-04-25T08:06:21;9.00;99.90
21811;DHT22;11067;48.788;9.208;2023-04-25T08:08:47;9.00;99.90
21811;DHT22;11067;48.788;9.208;2023-04-25T08:11:12;9.00;99.90
21811;DHT22;11067;48.788;9.208;2023-04-25T08:13:38;8.90;99.90
21811;DHT22;11067;48.788;9.208;2023-04-25T08:16:04;8.90;99.90
21811;DHT22;11067;48.788;9.208;2023-04-25T08:18:29;9.00;99.90
21811;DHT22;11067;48.788;9.208;2023-04-25T08:20:56;8.90;99.90
21811;DHT22;11067;48.788;9.208;2023-04-25T08:23:21;9.00;99.90
21811;DHT22;11067;48.788;9.208;2023-04-25T08:25:47;9.00;99.90
21811;DHT22;11067;48.788;9.208;2023-04-25T08:28:12;8.80;99.90
21811;DHT22;11067;48.788;9.208;2023-04-25T08:30:38;9.00;99.90
21811;DHT22;11067;48.788;9.208;2023-04-25T08:33:03;9.10;99.90
21811;DHT22;11067;48.788;9.208;2023-04-25T08:35:29;9.20;99.90
21811;DHT22;11067;48.788;9.208;2023-04-25T08:37:54;9.00;99.90
21811;DHT22;11067;48.788;9.208;2023-04-25T08:40:22;9.00;99.90
21811;DHT22;11067;48.788;9.208;2023-04-25T08:42:54;8.90;99.90
21811;DHT22;11067;48.788;9.208;2023-04-25T08:45:21;8.90;99.90
21811;DHT22;11067;48.788;9.208;2023-04-25T08:47:47;8.70;99.90
21811;DHT22;11067;48.788;9.208;2023-04-25T08:50:15;8.70;99.90
21811;DHT22;11067;48.788;9.208;2023-04-25T08:52:44;8.70;99.90
21811;DHT22;11067;48.788;9.208;2023-04-25T08:55:12;8.70;99.90
21811;DHT22;11067;48.788;9.208;2023-04-25T08:57:40;8.70;99.90
21811;DHT22;11067;48.788;9.208;2023-04-25T09:00:09;8.70;99.90
21811;DHT22;11067;48.788;9.208;2023-04-25T09:02:35;8.70;99.90
21811;DHT22;11067;48.788;9.208;2023-04-25T09:05:02;8.60;99.90
21811;DHT22;11067;48.788;9.208;2023-04-25T09:07:29;8.70;99.90
21811;DHT22;11067;48.788;9.208;2023-04-25T09:09:55;8.80;99.90
21811;DHT22;11067;48.788;9.208;2023-04-25T09:12:21;8.80;99.90
21811;DHT22;11067;48.788;9.208;2023-04-25T09:15:10;8.80;99.90
21811;DHT22;11067;48.788;9.208;2023-04-25T09:17:35;8.70;99.90
21811;DHT22;11067;48.788;9.208;2023-04-25T09:20:11;8.80;99.90
21811;DHT22;11067;48.788;9.208;2023-04-25T09:22:37;8.70;99.90
21811;DHT22;11067;48.788;9.208;2023-04-25T09:25:08;8.80;99.90
21811;DHT22;11067;48.788;9.208;2023-04-25T09:27:34;8.70;99.90
21811;DHT22;11067;48.788;9.208;2023-04-25T09:30:00;8.70;99.90
21811;DHT22;11067;48.788;9.208;2023-04-25T09:32:26;8.70;99.90
21811;DHT22;11067;48.788;9.208;2023-04-25T09:34:54;8.70;99.90
21811;DHT22;11067;48.788;9.208;2023-04-25T09:37:22;8.70;99.90
21811;DHT22;11067;48.788;9.208;2023-04-25T09:39:50;8.70;99.90
21811;DHT22;11067;48.788;9.208;2023-04-25T09:42:17;8.70;99.90
21811;DHT22;11067;48.788;9.208;2023-04-25T09:44:46;8.60;99.90
21811;DHT22;11067;48.788;9.208;2023-04-25T09:47:14;8.70;99.90
21811;DHT22;11067;48.788;9.208;2023-04-25T09:49:41;8.60;99.90
21811;DHT22;11067;48.788;9.208;2023-04-25T09:52:07;8.50;99.90
21811;DHT22;11067;48.788;9.208;2023-04-25T09:54:33;8.50;99.90
21811;DHT22;11067;48.788;9.208;2023-04-25T09:57:22;8.50;99.90
21811;DHT22;11067;48.788;9.208;2023-04-25T09:59:49;8.50;99.90
21811;DHT22;11067;48.788;9.208;2023-04-25T10:02:16;8.20;99.90
21811;DHT22;11067;48.788;9.208;2023-04-25T10:04:47;7.90;99.90
21811;DHT22;11067;48.788;9.208;2023-04-25T10:07:13;7.70;99.90
21811;DHT22;11067;48.788;9.208;2023-04-25T10:09:40;7.40;99.90
21811;DHT22;11067;48.788;9.208;2023-04-25T10:12:07;7.50;99.90
21811;DHT22;11067;48.788;9.208;2023-04-25T10:14:33;7.50;99.90
21811;DHT22;11067;48.788;9.208;2023-04-25T10:17:00;7.50;99.90
21811;DHT22;11067;48.788;9.208;2023-04-25T10:19:26;7.60;99.90
21811;DHT22;11067;48.788;9.208;2023-04-25T10:22:04;7.60;99.90
21811;DHT22;11067;48.788;9.208;2023-04-25T10:24:31;7.70;99.90
21811;DHT22;11067;48.788;9.208;2023-04-25T10:26:58;7.60;99.90
21811;DHT22;11067;48.788;9.208;2023-04-25T10:29:26;7.40;99.90
21811;DHT22;11067;48.788;9.208;2023-04-25T10:31:52;7.40;99.90
21811;DHT22;11067;48.788;9.208;2023-04-25T10:34:18;7.50;99.90
21811;DHT22;11067;48.788;9.208;2023-04-25T10:36:50;7.70;99.90
21811;DHT22;11067;48.788;9.208;2023-04-25T10:39:22;7.90;99.90
21811;DHT22;11067;48.788;9.208;2023-04-25T10:41:53;7.70;99.90
21811;DHT22;11067;48.788;9.208;2023-04-25T10:44:19;7.90;99.90
21811;DHT22;11067;48.788;9.208;2023-04-25T10:46:44;7.90;99.90
21811;DHT22;11067;48.788;9.208;2023-04-25T10:49:11;7.80;99.90
21811;DHT22;11067;48.788;9.208;2023-04-25T10:52:17;7.80;99.90
21811;DHT22;11067;48.788;9.208;2023-04-25T10:54:53;7.60;99.90
21811;DHT22;11067;48.788;9.208;2023-04-25T11:00:28;7.50;99.90
21811;DHT22;11067;48.788;9.208;2023-04-25T11:02:58;7.30;99.90
21811;DHT22;11067;48.788;9.208;2023-04-25T11:05:32;7.30;99.90
21811;DHT22;11067;48.788;9.208;2023-04-25T11:07:58;7.30;99.90
21811;DHT22;11067;48.788;9.208;2023-04-25T11:10:31;7.00;99.90
21811;DHT22;11067;48.788;9.208;2023-04-25T11:12:58;7.00;99.90
21811;DHT22;11067;48.788;9.208;2023-04-25T11:15:24;7.10;99.90
21811;DHT22;11067;48.788;9.208;2023-04-25T11:17:54;7.00;99.90
21811;DHT22;11067;48.788;9.208;2023-04-25T11:20:20;7.00;99.90
21811;DHT22;11067;48.788;9.208;2023-04-25T11:22:46;6.90;99.90
21811;DHT22;11067;48.788;9.208;2023-04-25T11:25:14;7.20;99.90
21811;DHT22;11067;48.788;9.208;2023-04-25T11:27:54;7.30;99.90
21811;DHT22;11067;48.788;9.208;2023-04-25T11:30:20;7.50;99.90
21811;DHT22;11067;48.788;9.208;2023-04-25T11:32:46;7.50;99.90
21811;DHT22;11067;48.788;9.208;2023-04-25T11:35:12;7.70;99.90
21811;DHT22;11067;48.788;9.208;2023-04-25T11:37:42;7.90;99.90
21811;DHT22;11067;48.788;9.208;2023-04-25T11:40:08;7.90;99.90
21811;DHT22;11067;48.788;9.208;2023-04-25T11:42:43;8.00;99.90
21811;DHT22;11067;48.788;9.208;2023-04-25T11:45:09;8.00;99.90
21811;DHT22;11067;48.788;9.208;2023-04-25T11:47:35;7.70;99.90
21811;DHT22;11067;48.788;9.208;2023-04-25T11:50:02;7.90;99.90
21811;DHT22;11067;48.788;9.208;2023-04-25T11:52:47;8.20;99.90
21811;DHT22;11067;48.788;9.208;2023-04-25T11:55:14;8.40;99.90
21811;DHT22;11067;48.788;9.208;2023-04-25T11:57:41;8.30;99.90
21811;DHT22;11067;48.788;9.208;2023-04-25T12:00:11;8.40;99.90
21811;DHT22;11067;48.788;9.208;2023-04-25T12:02:40;8.30;99.90
21811;DHT22;11067;48.788;9.208;2023-04-25T12:05:07;8.40;99.90
21811;DHT22;11067;48.788;9.208;2023-04-25T12:07:34;8.50;99.90
21811;DHT22;11067;48.788;9.208;2023-04-25T12:10:07;8.50;99.90
21811;DHT22;11067;48.788;9.208;2023-04-25T12:12:34;8.70;99.90
21811;DHT22;11067;48.788;9.208;2023-04-25T12:15:14;8.80;99.90
21811;DHT22;11067;48.788;9.208;2023-04-25T12:17:41;8.80;99.90
21811;DHT22;11067;48.788;9.208;2023-04-25T12:20:09;8.80;99.90
21811;DHT22;11067;48.788;9.208;2023-04-25T12:22:35;8.70;99.90
21811;DHT22;11067;48.788;9.208;2023-04-25T12:25:02;8.50;99.90
21811;DHT22;11067;48.788;9.208;2023-04-25T12:27:31;8.40;99.90
21811;DHT22;11067;48.788;9.208;2023-04-25T12:29:57;8.50;99.90
21811;DHT22;11067;48.788;9.208;2023-04-25T12:32:23;8.40;99.90
21811;DHT22;11067;48.788;9.208;2023-04-25T12:34:48;8.10;99.90
21811;DHT22;11067;48.788;9.208;2023-04-25T12:37:14;8.10;99.90
21811;DHT22;11067;48.788;9.208;2023-04-25T12:39:40;8.40;99.90
21811;DHT22;11067;48.788;9.208;2023-04-25T12:42:06;8.30;99.90
21811;DHT22;11067;48.788;9.208;2023-04-25T12:44:33;8.40;99.90
21811;DHT22;11067;48.788;9.208;2023-04-25T12:46:59;8.60;99.90
21811;DHT22;11067;48.788;9.208;2023-04-25T12:49:25;8.90;99.90
21811;DHT22;11067;48.788;9.208;2023-04-25T12:51:50;9.00;99.90
21811;DHT22;11067;48.788;9.208;2023-04-25T12:54:17;8.80;99.90
21811;DHT22;11067;48.788;9.208;2023-04-25T12:56:42;9.30;99.90
21811;DHT22;11067;48.788;9.208;2023-04-25T12:59:08;9.90;99.90
21811;DHT22;11067;48.788;9.208;2023-04-25T13:01:34;10.00;99.90
21811;DHT22;11067;48.788;9.208;2023-04-25T13:04:00;10.20;99.90
21811;DHT22;11067;48.788;9.208;2023-04-25T13:06:26;10.20;99.90
21811;DHT22;11067;48.788;9.208;2023-04-25T13:08:51;10.20;99.90
21811;DHT22;11067;48.788;9.208;2023-04-25T13:11:17;10.20;99.90
21811;DHT22;11067;48.788;9.208;2023-04-25T13:13:43;10.10;99.90
21811;DHT22;11067;48.788;9.208;2023-04-25T13:16:09;10.30;99.90
21811;DHT22;11067;48.788;9.208;2023-04-25T13:18:35;10.00;99.90
21811;DHT22;11067;48.788;9.208;2023-04-25T13:21:01;10.00;99.90
21811;DHT22;11067;48.788;9.208;2023-04-25T13:23:28;10.00;99.90
21811;DHT22;11067;48.788;9.208;2023-04-25T13:25:54;10.00;99.90
21811;DHT22;11067;48.788;9.208;2023-04-25T13:28:20;10.10;99.90
21811;DHT22;11067;48.788;9.208;2023-04-25T13:30:47;10.10;99.90
21811;DHT22;11067;48.788;9.208;2023-04-25T13:33:14;10.20;99.90
21811;DHT22;11067;48.788;9.208;2023-04-25T13:35:40;10.40;99.90
21811;DHT22;11067;48.788;9.208;2023-04-25T13:38:06;10.50;99.90
21811;DHT22;11067;48.788;9.208;2023-04-25T13:40:32;10.30;99.90
21811;DHT22;11067;48.788;9.208;2023-04-25T13:42:57;10.20;99.90
21811;DHT22;11067;48.788;9.208;2023-04-25T13:45:24;10.40;99.90
21811;DHT22;11067;48.788;9.208;2023-04-25T13:47:49;10.50;99.90
21811;DHT22;11067;48.788;9.208;2023-04-25T13:50:15;10.50;99.90
21811;DHT22;11067;48.788;9.208;2023-04-25T13:52:41;10.40;99.90
21811;DHT22;11067;48.788;9.208;2023-04-25T13:55:07;10.50;99.90
21811;DHT22;11067;48.788;9.208;2023-04-25T13:57:34;10.60;99.90
21811;DHT22;11067;48.788;9.208;2023-04-25T14:00:00;10.30;99.90
21811;DHT22;11067;48.788;9.208;2023-04-25T14:02:30;10.50;99.90
21811;DHT22;11067;48.788;9.208;2023-04-25T14:04:55;10.90;99.90
21811;DHT22;11067;48.788;9.208;2023-04-25T14:07:21;11.10;99.90
21811;DHT22;11067;48.788;9.208;2023-04-25T14:09:46;11.30;99.90
21811;DHT22;11067;48.788;9.208;2023-04-25T14:12:12;11.10;99.90
21811;DHT22;11067;48.788;9.208;2023-04-25T14:14:38;11.00;99.90
21811;DHT22;11067;48.788;9.208;2023-04-25T14:17:03;10.60;99.90
21811;DHT22;11067;48.788;9.208;2023-04-25T14:19:29;10.60;99.90
21811;DHT22;11067;48.788;9.208;2023-04-25T14:21:55;10.70;99.90
21811;DHT22;11067;48.788;9.208;2023-04-25T14:24:20;10.60;99.90
21811;DHT22;11067;48.788;9.208;2023-04-25T14:26:46;11.00;99.90
21811;DHT22;11067;48.788;9.208;2023-04-25T14:29:12;11.20;99.90
21811;DHT22;11067;48.788;9.208;2023-04-25T14:31:38;11.10;99.90
21811;DHT22;11067;48.788;9.208;2023-04-25T14:34:05;11.30;99.90
21811;DHT22;11067;48.788;9.208;2023-04-25T14:36:31;11.60;99.90
21811;DHT22;11067;48.788;9.208;2023-04-25T14:38:59;11.80;99.90
21811;DHT22;11067;48.788;9.208;2023-04-25T14:41:25;11.20;99.90
21811;DHT22;11067;48.788;9.208;2023-04-25T14:43:52;11.50;99.90
21811;DHT22;11067;48.788;9.208;2023-04-25T14:46:19;11.20;99.90
21811;DHT22;11067;48.788;9.208;2023-04-25T14:48:45;11.30;99.90
21811;DHT22;11067;48.788;9.208;2023-04-25T14:51:10;11.40;99.90
21811;DHT22;11067;48.788;9.208;2023-04-25T14:53:36;11.60;99.90
21811;DHT22;11067;48.788;9.208;2023-04-25T14:56:02;11.40;99.90
21811;DHT22;11067;48.788;9.208;2023-04-25T14:58:28;11.00;99.90
21811;DHT22;11067;48.788;9.208;2023-04-25T15:00:54;11.20;99.90
21811;DHT22;11067;48.788;9.208;2023-04-25T15:03:20;11.20;99.90
21811;DHT22;11067;48.788;9.208;2023-04-25T15:05:45;11.20;99.90
21811;DHT22;11067;48.788;9.208;2023-04-25T15:08:11;11.20;99.90
21811;DHT22;11067;48.788;9.208;2023-04-25T15:10:36;11.00;99.90
21811;DHT22;11067;48.788;9.208;2023-04-25T15:13:03;10.90;99.90
21811;DHT22;11067;48.788;9.208;2023-04-25T15:15:29;11.00;99.90
21811;DHT22;11067;48.788;9.208;2023-04-25T15:17:55;10.80;99.90
21811;DHT22;11067;48.788;9.208;2023-04-25T15:20:21;10.80;99.90
21811;DHT22;11067;48.788;9.208;2023-04-25T15:22:47;10.90;99.90
21811;DHT22;11067;48.788;9.208;2023-04-25T15:25:15;11.10;99.90
21811;DHT22;11067;48.788;9.208;2023-04-25T15:27:43;11.10;99.90
21811;DHT22;11067;48.788;9.208;2023-04-25T15:30:15;11.20;99.90
21811;DHT22;11067;48.788;9.208;2023-04-25T15:32:41;11.40;99.90
21811;DHT22;11067;48.788;9.208;2023-04-25T15:35:07;11.30;99.90
21811;DHT22;11067;48.788;9.208;2023-04-25T15:37:34;11.00;99.90
21811;DHT22;11067;48.788;9.208;2023-04-25T15:40:13;11.30;99.90
21811;DHT22;11067;48.788;9.208;2023-04-25T15:42:43;11.30;99.90